Stanchfield, Minnesota
Current Conditions -  °F | °C
As of 5:15 PM on Thursday 27 Nov 2014 (Local Time) from KCBG Reporting Station
Clear Clear  
Wind Chill:   Ceiling: Unl
Heat Index:   Visibility: 10mi
Dew Point: -2°   Wind: 0mph
Humidity: 62%   Direction: NA
Pressure: 30.36"   Gusts: NA
Location:  45.67°N, 93.18°W
Report Text: KCBG 272315Z AUTO 00000KT 10SM CLR M13/M19 A3036 RMK AO2
Loading
Personal Weather Stations






























Interactive Weather Map New forecast layout! Learn more

10-Day Weather Forecast

Advertisements
Track Severe Weather on mobile